createdAt,value
2022-09-01T08:10:43.091Z,2.00
2022-09-01T08:13:52.018Z,1.58
2022-09-01T08:16:55.426Z,1.67
2022-09-01T08:19:58.934Z,2.22
2022-09-01T08:23:02.153Z,2.03
2022-09-01T08:26:12.522Z,1.60
2022-09-01T08:32:20.621Z,1.70
2022-09-01T08:35:23.475Z,1.50
2022-09-01T08:38:28.975Z,1.67
2022-09-01T08:41:47.248Z,2.05
2022-09-01T08:45:16.045Z,1.80
2022-09-01T08:51:59.017Z,2.10
2022-09-01T08:55:35.525Z,1.77
2022-09-01T08:58:40.219Z,1.90
2022-09-01T09:02:01.137Z,1.70
2022-09-01T09:05:17.794Z,1.50
2022-09-01T09:08:52.388Z,1.70
2022-09-01T09:12:33.936Z,1.73
2022-09-01T09:16:07.471Z,1.60
2022-09-01T09:19:38.902Z,1.45
2022-09-01T09:22:43.185Z,1.65
2022-09-01T09:25:46.812Z,1.30
2022-09-01T09:28:55.175Z,1.30
2022-09-01T09:35:39.181Z,1.25
2022-09-01T09:38:42.674Z,1.52
2022-09-01T09:42:09.131Z,1.33
2022-09-01T09:45:42.560Z,1.25
2022-09-01T09:48:45.321Z,1.40
2022-09-01T09:52:10.393Z,1.17
2022-09-01T09:55:29.859Z,1.10
2022-09-01T09:58:40.715Z,1.35
2022-09-01T10:01:43.371Z,1.12
2022-09-01T10:04:46.388Z,1.27
2022-09-01T10:07:50.091Z,1.00
2022-09-01T10:10:57.734Z,1.20
2022-09-01T10:14:04.870Z,1.20
2022-09-01T10:17:38.509Z,1.23
2022-09-01T10:20:55.352Z,1.10
2022-09-01T10:24:17.018Z,0.98
2022-09-01T10:27:25.481Z,1.15
2022-09-01T10:30:30.284Z,0.90
2022-09-01T10:33:33.010Z,0.95
2022-09-01T10:36:37.839Z,1.10
2022-09-01T10:40:20.583Z,1.00
2022-09-01T10:43:38.501Z,1.17
2022-09-01T10:46:50.176Z,0.95
2022-09-01T10:49:53.563Z,1.20
2022-09-01T10:53:02.482Z,1.40
2022-09-01T10:56:36.564Z,1.02
2022-09-01T10:59:44.946Z,1.40
2022-09-01T11:03:31.762Z,1.15
2022-09-01T11:06:42.184Z,1.08
2022-09-01T11:10:30.763Z,1.10
2022-09-01T11:13:40.297Z,1.10
2022-09-01T11:16:47.739Z,1.10
2022-09-01T11:20:08.681Z,1.08
2022-09-01T11:23:12.270Z,1.00
2022-09-01T11:26:33.325Z,0.82
2022-09-01T11:30:00.372Z,0.98
2022-09-01T11:33:38.994Z,1.10
2022-09-01T11:36:46.132Z,1.00
2022-09-01T11:39:58.646Z,1.30
2022-09-01T11:43:12.539Z,0.88
2022-09-01T11:46:43.835Z,1.12
2022-09-01T11:49:51.986Z,0.70
2022-09-01T11:53:04.969Z,0.95
2022-09-01T11:56:18.515Z,0.90
2022-09-01T11:59:37.455Z,1.02
2022-09-01T12:02:52.086Z,0.90
2022-09-01T12:06:04.723Z,0.80
2022-09-01T12:09:07.551Z,0.93
2022-09-01T12:12:36.807Z,1.00
2022-09-01T12:16:07.167Z,1.10
2022-09-01T12:19:07.833Z,1.02
2022-09-01T12:22:18.302Z,1.00
2022-09-01T12:25:25.599Z,0.88
2022-09-01T12:28:31.843Z,0.82
2022-09-01T12:31:35.757Z,0.90
2022-09-01T12:34:46.551Z,1.15
2022-09-01T12:37:50.576Z,0.80
2022-09-01T12:40:55.887Z,0.90
2022-09-01T12:44:30.344Z,0.88
2022-09-01T12:47:36.299Z,0.90
2022-09-01T12:50:43.712Z,0.77
2022-09-01T12:54:04.711Z,0.70
2022-09-01T12:57:08.508Z,0.90
2022-09-01T13:00:12.021Z,0.80
2022-09-01T13:03:18.089Z,1.08
2022-09-01T13:06:20.958Z,0.80
2022-09-01T13:09:23.917Z,1.20
2022-09-01T13:12:26.669Z,1.00
2022-09-01T13:15:31.170Z,1.00
2022-09-01T13:19:10.316Z,1.00
2022-09-01T13:21:56.909Z,0.98
2022-09-01T13:25:00.336Z,1.00
2022-09-01T13:28:04.225Z,0.75
2022-09-01T13:34:30.189Z,0.95
2022-09-01T13:37:32.906Z,0.80
2022-09-01T13:40:36.128Z,0.82
2022-09-01T13:43:38.906Z,1.10
2022-09-01T13:46:59.615Z,0.85
2022-09-01T13:50:08.474Z,0.88
2022-09-01T13:53:12.770Z,0.80
2022-09-01T13:56:15.479Z,1.00
2022-09-01T13:59:18.860Z,1.17
2022-09-01T14:02:21.754Z,1.00
2022-09-01T14:05:31.211Z,0.90
2022-09-01T14:08:34.107Z,0.95
2022-09-01T14:11:37.273Z,1.00
2022-09-01T14:18:03.677Z,1.12
2022-09-01T14:21:11.632Z,1.00
2022-09-01T14:24:14.653Z,0.85
2022-09-01T14:27:17.464Z,1.00
2022-09-01T14:30:27.783Z,0.90
2022-09-01T14:33:34.203Z,0.80
2022-09-01T14:36:37.310Z,1.30
2022-09-01T14:39:40.393Z,1.48
2022-09-01T14:42:49.163Z,1.02
2022-09-01T14:46:06.383Z,1.20
2022-09-01T14:49:11.102Z,1.02
2022-09-01T14:52:14.409Z,1.12
2022-09-01T14:55:17.570Z,1.10
2022-09-01T14:58:20.401Z,1.50
2022-09-01T15:01:34.354Z,1.23
2022-09-01T15:04:37.841Z,1.37
2022-09-01T15:07:41.554Z,1.10
2022-09-01T15:10:44.655Z,1.15
2022-09-01T15:13:47.953Z,1.10
2022-09-01T15:16:51.161Z,1.10
2022-09-01T15:19:54.597Z,1.20
2022-09-01T15:22:57.323Z,1.00
2022-09-01T15:26:00.277Z,1.30
2022-09-01T15:29:04.602Z,1.35
2022-09-01T15:32:07.540Z,1.12
2022-09-01T15:35:10.986Z,1.60
2022-09-01T15:38:19.554Z,1.08
2022-09-01T16:40:44.335Z,1.40
2022-09-01T16:44:16.758Z,1.50
2022-09-01T16:47:37.377Z,2.00
2022-09-01T16:50:54.497Z,2.12
2022-09-01T16:54:33.988Z,1.90
2022-09-01T16:58:04.687Z,1.98
2022-09-01T17:01:14.249Z,1.90
2022-09-01T17:04:24.815Z,2.35
2022-09-01T17:07:42.830Z,1.70
2022-09-01T17:11:11.874Z,1.77
2022-09-01T17:14:22.573Z,1.70
2022-09-01T17:17:33.512Z,1.45
2022-09-01T17:20:41.377Z,1.70
2022-09-01T17:23:59.120Z,1.77
2022-09-01T17:27:07.697Z,1.62
2022-09-01T17:30:10.991Z,2.20
2022-09-01T17:33:19.652Z,1.87
2022-09-01T17:36:47.187Z,2.03
2022-09-01T17:40:09.536Z,1.70
2022-09-01T17:43:24.188Z,1.70
2022-09-01T17:46:49.328Z,1.98
2022-09-01T17:50:14.221Z,1.73
2022-09-01T17:53:38.665Z,2.20
2022-09-01T17:56:53.206Z,1.77
2022-09-01T18:00:08.613Z,2.10
2022-09-01T18:03:34.414Z,2.00
2022-09-01T18:06:51.796Z,2.08
2022-09-01T18:09:56.598Z,1.75
2022-09-01T18:13:03.506Z,1.95
2022-09-01T18:16:12.724Z,1.80
2022-09-01T18:22:25.893Z,1.80
2022-09-01T18:25:46.231Z,2.00
2022-09-01T18:28:56.994Z,2.20
2022-09-01T18:32:21.941Z,2.10
2022-09-01T18:35:41.413Z,1.95
2022-09-01T18:39:01.614Z,2.10
2022-09-01T18:42:31.449Z,1.77
2022-09-01T18:45:55.448Z,2.08
2022-09-01T18:49:16.858Z,2.10
2022-09-01T18:52:48.225Z,1.98
2022-09-01T18:56:10.643Z,1.87
2022-09-01T18:59:36.606Z,2.33
2022-09-01T19:02:56.703Z,2.22
2022-09-01T19:06:26.293Z,2.33
2022-09-01T19:09:31.393Z,2.10
2022-09-01T19:12:56.190Z,2.25
2022-09-01T19:16:05.195Z,2.50
2022-09-01T19:22:54.498Z,2.65
2022-09-01T19:26:03.542Z,2.47
2022-09-01T19:29:18.808Z,2.40
2022-09-01T19:32:23.954Z,2.33
2022-09-01T19:35:28.980Z,2.10
2022-09-01T19:38:32.273Z,2.20
2022-09-01T19:41:42.205Z,2.10
2022-09-01T19:45:07.298Z,2.45
2022-09-01T19:48:25.185Z,2.30
2022-09-01T19:51:34.070Z,2.70
2022-09-01T19:54:36.793Z,2.73
2022-09-01T19:57:57.906Z,2.47
2022-09-01T20:01:03.385Z,2.60
2022-09-01T20:04:22.805Z,2.53
2022-09-01T20:07:37.183Z,2.50
2022-09-01T20:10:57.992Z,2.47
2022-09-01T20:14:12.070Z,2.10
2022-09-01T20:17:25.938Z,2.95
2022-09-01T20:20:34.540Z,2.37
2022-09-01T20:23:43.106Z,2.73
2022-09-01T20:26:59.408Z,2.50
2022-09-01T20:30:07.108Z,3.22
2022-09-01T20:33:40.400Z,2.37
2022-09-01T20:36:48.954Z,2.40
2022-09-01T20:40:04.967Z,3.22
2022-09-01T20:43:37.483Z,2.55
2022-09-01T20:46:40.216Z,2.10
2022-09-01T20:49:43.265Z,2.40
2022-09-01T20:52:48.836Z,2.20
2022-09-01T20:56:02.619Z,2.30
2022-09-01T20:59:41.877Z,2.60
2022-09-01T21:03:21.715Z,2.47
2022-09-01T21:06:55.360Z,2.70
2022-09-01T21:10:04.445Z,2.92
2022-09-01T21:13:29.082Z,2.77
2022-09-01T21:16:49.175Z,2.50
2022-09-01T21:23:20.312Z,2.47
2022-09-01T21:26:23.346Z,2.30
2022-09-01T21:29:43.949Z,2.47
2022-09-01T21:32:47.098Z,2.78
2022-09-01T21:35:50.231Z,2.30
2022-09-01T21:38:53.192Z,2.75
2022-09-01T21:41:58.531Z,2.53
2022-09-01T21:45:02.903Z,2.53
2022-09-01T21:48:08.188Z,2.20
2022-09-01T21:51:11.229Z,2.60
2022-09-01T21:54:14.370Z,2.20
2022-09-01T21:57:17.094Z,2.62
2022-09-01T22:00:24.651Z,2.17
2022-09-01T22:03:27.562Z,2.10
2022-09-01T22:06:31.316Z,2.25
2022-09-01T22:09:34.361Z,2.03
2022-09-01T22:12:38.266Z,2.05
2022-09-01T22:15:49.638Z,2.10
2022-09-01T22:18:52.623Z,2.15
2022-09-01T22:21:56.189Z,1.90
2022-09-01T22:24:59.621Z,1.90
2022-09-01T22:28:05.581Z,1.95
2022-09-01T22:31:14.039Z,2.00
2022-09-01T22:34:17.146Z,2.10
2022-09-01T22:37:20.233Z,1.62
2022-09-01T22:40:23.637Z,2.22
2022-09-01T22:43:28.437Z,2.00
2022-09-01T22:46:32.122Z,1.92
2022-09-01T22:49:35.193Z,1.60
2022-09-01T22:52:38.436Z,1.70
2022-09-01T22:55:44.028Z,1.55
2022-09-01T22:58:48.975Z,1.70
2022-09-01T23:01:51.753Z,1.80
2022-09-01T23:04:54.731Z,1.80
2022-09-01T23:07:58.509Z,1.98
2022-09-01T23:11:07.362Z,1.40
2022-09-01T23:14:10.100Z,1.70
2022-09-01T23:17:13.157Z,1.95
2022-09-01T23:20:15.994Z,2.00
2022-09-01T23:23:19.091Z,1.95
2022-09-01T23:26:21.836Z,2.03
2022-09-01T23:29:25.410Z,1.73
2022-09-01T23:32:28.149Z,2.00
2022-09-01T23:35:31.874Z,1.48
2022-09-01T23:38:37.045Z,1.35
2022-09-01T23:41:40.335Z,1.40
2022-09-01T23:44:43.003Z,1.55
2022-09-01T23:47:46.033Z,1.48
2022-09-01T23:50:54.756Z,1.80
2022-09-01T23:53:58.683Z,1.58
2022-09-01T23:57:01.868Z,1.30
